createdAt,value
2023-03-19T02:58:26.464Z,101419.38
2023-03-19T03:00:53.887Z,101454.22
2023-03-19T03:03:21.637Z,101469.03
2023-03-19T03:05:48.692Z,101469.03
2023-03-19T03:08:15.871Z,101472.53
2023-03-19T03:10:42.942Z,101455.03
2023-03-19T03:13:10.183Z,101480.34
2023-03-19T03:15:37.548Z,101488.19
2023-03-19T03:18:06.068Z,101488.16
2023-03-19T03:20:33.625Z,101492.47
2023-03-19T03:23:01.019Z,101505.53
2023-03-19T03:25:28.424Z,101502.03
2023-03-19T03:27:55.513Z,101498.47
2023-03-19T03:30:23.193Z,101512.44
2023-03-19T03:32:50.328Z,101519.38
2023-03-19T03:35:22.016Z,101523.75
2023-03-19T03:37:50.414Z,101529.78
2023-03-19T03:40:17.751Z,101530.66
2023-03-19T03:42:45.510Z,101527.13
2023-03-19T03:45:13.018Z,101490.41
2023-03-19T03:47:42.314Z,101527.91
2023-03-19T03:50:11.155Z,101540.97
2023-03-19T03:52:39.873Z,101558.38
2023-03-19T03:55:07.812Z,101560.09
2023-03-19T03:57:35.177Z,101571.41
2023-03-19T04:00:02.470Z,101515.47
2023-03-19T04:02:40.866Z,101566.13
2023-03-19T04:05:10.594Z,101574.81
2023-03-19T04:07:37.983Z,101577.41
2023-03-19T04:10:05.922Z,101558.19
2023-03-19T04:12:32.922Z,101578.22
2023-03-19T04:15:00.054Z,101574.72
2023-03-19T04:17:27.270Z,101558.91
2023-03-19T04:19:54.167Z,101591.16
2023-03-19T04:22:21.122Z,101601.59
2023-03-19T04:24:48.179Z,101591.09
2023-03-19T04:27:15.230Z,101591.97
2023-03-19T04:29:42.166Z,101602.34
2023-03-19T04:32:09.703Z,101600.59
2023-03-19T04:34:37.421Z,101603.16
2023-03-19T04:37:04.794Z,101567.28
2023-03-19T04:39:34.730Z,101601.31
2023-03-19T04:42:01.646Z,101614.41
2023-03-19T04:44:35.366Z,101601.19
2023-03-19T04:47:02.436Z,101622.16
2023-03-19T04:49:36.524Z,101628.19
2023-03-19T04:52:04.115Z,101629.00
2023-03-19T04:54:31.119Z,101636.81
2023-03-19T04:56:58.304Z,101610.53
2023-03-19T04:59:29.399Z,101643.69
2023-03-19T05:01:56.977Z,101637.56
2023-03-19T05:04:25.247Z,101642.78
2023-03-19T05:06:55.312Z,101609.50
2023-03-19T05:09:22.291Z,101647.97
2023-03-19T05:11:49.287Z,101647.94
2023-03-19T05:14:19.901Z,101650.47
2023-03-19T05:16:59.039Z,101652.22
2023-03-19T05:19:29.708Z,101642.59
2023-03-19T05:21:57.291Z,101645.16
2023-03-19T05:24:25.389Z,101649.50
2023-03-19T05:26:53.512Z,101651.22
2023-03-19T05:29:34.809Z,101646.84
2023-03-19T05:32:37.606Z,101637.19
2023-03-19T05:35:07.329Z,101654.59
2023-03-19T05:37:36.552Z,101658.91
2023-03-19T05:40:03.941Z,101677.16
2023-03-19T05:42:31.392Z,101667.63
2023-03-19T05:44:59.495Z,101672.81
2023-03-19T05:47:28.711Z,101676.25
2023-03-19T05:49:58.237Z,101678.00
2023-03-19T05:52:25.666Z,101689.25
2023-03-19T05:54:56.011Z,101691.00
2023-03-19T05:57:37.202Z,101692.72
2023-03-19T06:00:10.633Z,101705.72
2023-03-19T06:02:38.035Z,101706.63
2023-03-19T06:05:21.338Z,101698.81
2023-03-19T06:07:48.933Z,101704.88
2023-03-19T06:10:25.923Z,101709.25
2023-03-19T06:12:55.379Z,101710.09
2023-03-19T06:15:38.931Z,101674.19
2023-03-19T06:18:14.763Z,101716.22
2023-03-19T06:20:42.187Z,101716.22
2023-03-19T06:23:09.392Z,101718.84
2023-03-19T06:25:36.770Z,101713.66
2023-03-19T06:28:05.281Z,101707.47
2023-03-19T06:30:37.151Z,101728.44
2023-03-19T06:33:10.197Z,101729.34
2023-03-19T06:35:37.153Z,101718.94
2023-03-19T06:38:04.132Z,101720.69
2023-03-19T06:40:31.456Z,101729.44
2023-03-19T06:42:58.453Z,101725.13
2023-03-19T06:45:25.486Z,101726.91
2023-03-19T06:47:53.651Z,101704.97
2023-03-19T06:50:21.493Z,101731.31
2023-03-19T06:52:48.321Z,101736.59
2023-03-19T06:55:15.783Z,101733.97
2023-03-19T06:57:42.638Z,101742.75
2023-03-19T07:00:11.753Z,101745.38
2023-03-19T07:02:38.962Z,101749.81
2023-03-19T07:05:06.601Z,101754.22
2023-03-19T07:07:35.006Z,101753.41
2023-03-19T07:10:02.174Z,101748.28
2023-03-19T07:12:29.036Z,101750.94
2023-03-19T07:14:59.094Z,101759.69
2023-03-19T07:17:27.077Z,101761.53
2023-03-19T07:19:54.078Z,101772.03
2023-03-19T07:22:21.777Z,101782.56
2023-03-19T07:24:48.978Z,101760.78
2023-03-19T07:27:16.550Z,101775.75
2023-03-19T07:29:43.457Z,101779.28
2023-03-19T07:32:11.421Z,101788.91
2023-03-19T07:34:38.506Z,101793.34
2023-03-19T07:37:05.498Z,101788.19
2023-03-19T07:39:32.623Z,101802.19
2023-03-19T07:41:59.670Z,101795.31
2023-03-19T07:44:26.513Z,101776.97
2023-03-19T07:46:53.527Z,101798.91
2023-03-19T07:49:20.547Z,101791.13
2023-03-19T07:51:47.451Z,101764.06
2023-03-19T07:54:14.486Z,101774.63
2023-03-19T07:56:41.338Z,101791.28
2023-03-19T07:59:08.198Z,101723.06
2023-03-19T08:01:35.530Z,101791.38
2023-03-19T08:04:02.537Z,101787.94
2023-03-19T08:06:29.754Z,101789.75
2023-03-19T08:08:56.922Z,101789.78
2023-03-19T08:11:23.923Z,101762.72
2023-03-19T08:13:50.826Z,101785.50
2023-03-19T08:16:17.893Z,101787.25
2023-03-19T08:18:44.770Z,101789.94
2023-03-19T08:21:11.723Z,101796.94
2023-03-19T08:23:38.718Z,101800.47
2023-03-19T08:26:05.580Z,101805.72
2023-03-19T08:28:32.607Z,101782.16
2023-03-19T08:31:09.880Z,101793.59
2023-03-19T08:33:37.204Z,101805.81
2023-03-19T08:36:09.466Z,101798.88
2023-03-19T08:38:36.999Z,101773.53
2023-03-19T08:41:04.466Z,101808.53
2023-03-19T08:43:32.713Z,101800.72
2023-03-19T08:46:00.677Z,101796.34
2023-03-19T08:48:28.047Z,101785.88
2023-03-19T08:51:00.786Z,101795.53
2023-03-19T08:53:27.945Z,101794.66
2023-03-19T08:55:57.166Z,101793.78
2023-03-19T08:58:24.280Z,101800.81
2023-03-19T09:00:51.315Z,101803.44
2023-03-19T09:03:18.318Z,101807.81
2023-03-19T09:05:45.542Z,101795.63
2023-03-19T09:08:12.587Z,101797.34
2023-03-19T09:10:39.967Z,101790.38
2023-03-19T09:13:07.120Z,101797.41
2023-03-19T09:15:34.313Z,101799.16
2023-03-19T09:18:01.504Z,101794.78
2023-03-19T09:20:28.447Z,101790.41
2023-03-19T09:22:55.617Z,101781.69
2023-03-19T09:25:22.616Z,101787.78
2023-03-19T09:27:49.598Z,101779.94
2023-03-19T09:30:16.732Z,101772.94
2023-03-19T09:32:43.829Z,101793.06
2023-03-19T09:35:10.950Z,101765.97
2023-03-19T09:37:38.040Z,101779.97
2023-03-19T09:40:05.900Z,101777.34
2023-03-19T09:43:00.788Z,101722.28
2023-03-19T09:45:29.929Z,101788.66
2023-03-19T09:48:01.601Z,101787.81
2023-03-19T09:50:29.634Z,101779.06
2023-03-19T09:53:12.943Z,101779.94
2023-03-19T09:55:45.723Z,101775.56
2023-03-19T09:58:21.819Z,101772.94
2023-03-19T10:00:53.443Z,101744.97
2023-03-19T10:03:39.208Z,101764.19
2023-03-19T10:06:30.064Z,101763.31
2023-03-19T10:08:57.690Z,101781.66
2023-03-19T10:11:50.535Z,101769.41
2023-03-19T10:14:46.350Z,101774.66
2023-03-19T10:17:19.714Z,101771.13
2023-03-19T10:19:58.823Z,101759.78
2023-03-19T10:22:38.787Z,101759.78
2023-03-19T10:25:13.711Z,101760.63
2023-03-19T10:27:41.761Z,101758.88
2023-03-19T10:30:17.284Z,101763.28
2023-03-19T10:32:48.885Z,101753.63
2023-03-19T10:35:38.930Z,101750.13
2023-03-19T10:38:24.120Z,101750.13
2023-03-19T10:40:59.913Z,101744.84
2023-03-19T10:43:28.818Z,101742.22
2023-03-19T10:45:57.519Z,101738.72
2023-03-19T10:48:28.125Z,101743.03
2023-03-19T10:50:59.896Z,101733.44
2023-03-19T10:53:41.378Z,101733.38
2023-03-19T10:56:14.140Z,101733.38
2023-03-19T10:58:41.357Z,101709.81
2023-03-19T11:01:12.419Z,101726.38
2023-03-19T11:03:49.486Z,101735.09
2023-03-19T11:06:31.333Z,101729.78
2023-03-19T11:09:03.131Z,101720.97
2023-03-19T11:11:37.011Z,101726.22
2023-03-19T11:14:43.799Z,101724.44
2023-03-19T11:17:27.634Z,101706.94
2023-03-19T11:19:56.826Z,101713.00
2023-03-19T11:22:41.947Z,101715.59
2023-03-19T11:25:19.834Z,101705.09
2023-03-19T11:28:01.275Z,101697.19
2023-03-19T11:30:36.888Z,101704.19
2023-03-19T11:33:38.456Z,101691.88
2023-03-19T11:36:18.118Z,101692.75
2023-03-19T11:39:15.769Z,101687.44
2023-03-19T11:42:08.903Z,101685.69
2023-03-19T11:45:13.961Z,101687.38
2023-03-19T11:48:12.944Z,101675.06
2023-03-19T11:51:09.980Z,101678.50
2023-03-19T11:54:08.826Z,101680.16
2023-03-19T11:57:10.354Z,101681.00
2023-03-19T11:59:57.100Z,101684.44
2023-03-19T12:02:59.213Z,101679.09
2023-03-19T12:05:59.821Z,101652.00
2023-03-19T12:08:59.410Z,101671.06
2023-03-19T12:11:57.285Z,101646.53
2023-03-19T12:14:59.251Z,101659.47
2023-03-19T12:17:55.527Z,101669.03
2023-03-19T12:20:51.637Z,101671.59
2023-03-19T12:23:38.466Z,101654.00
2023-03-19T12:26:28.149Z,101653.94
2023-03-19T12:29:28.350Z,101646.84
2023-03-19T12:32:36.791Z,101640.72
2023-03-19T12:35:40.446Z,101645.91
2023-03-19T12:38:50.701Z,101650.25
2023-03-19T12:41:46.617Z,101648.50
2023-03-19T12:44:39.228Z,101641.41
2023-03-19T12:47:40.643Z,101636.09
2023-03-19T12:50:31.728Z,101640.50
2023-03-19T12:53:22.169Z,101629.94
2023-03-19T12:56:15.353Z,101614.13
2023-03-19T12:59:19.807Z,101597.53
2023-03-19T13:02:17.454Z,101607.97
2023-03-19T13:06:00.061Z,101602.69
2023-03-19T13:08:57.592Z,101591.28
2023-03-19T13:11:58.416Z,101556.50
2023-03-19T13:14:50.146Z,101604.38
2023-03-19T13:17:50.814Z,101599.06
2023-03-19T13:21:03.346Z,101606.03
2023-03-19T13:23:56.684Z,101590.19
2023-03-19T13:26:43.693Z,101585.81
2023-03-19T13:29:49.296Z,101577.91
2023-03-19T13:32:55.824Z,101569.06
2023-03-19T13:35:55.057Z,101571.72
2023-03-19T13:39:10.357Z,101563.81
2023-03-19T13:41:57.284Z,101561.19
2023-03-19T13:44:49.560Z,101567.38
2023-03-19T13:47:54.359Z,101552.44
2023-03-19T13:50:49.506Z,101535.88
2023-03-19T13:53:52.995Z,101538.50
2023-03-19T13:56:40.118Z,101527.06
2023-03-19T13:59:53.618Z,101526.19
2023-03-19T14:02:43.131Z,101513.94
2023-03-19T14:05:39.256Z,101519.19
2023-03-19T14:08:39.503Z,101508.69
2023-03-19T14:11:27.466Z,101513.94
2023-03-19T14:14:15.766Z,101499.06
2023-03-19T14:17:05.414Z,101505.22
2023-03-19T14:20:06.202Z,101449.53
2023-03-19T14:23:13.664Z,101503.59
2023-03-19T14:26:25.272Z,101505.38
2023-03-19T14:29:20.188Z,101506.28
2023-03-19T14:32:12.074Z,101504.56
2023-03-19T14:35:01.659Z,101495.84
2023-03-19T14:38:10.673Z,101490.63
2023-03-19T14:41:05.142Z,101488.88
2023-03-19T14:44:00.966Z,101491.56
2023-03-19T14:47:06.870Z,101482.84
2023-03-19T14:50:02.617Z,101472.38
2023-03-19T14:52:56.620Z,101465.38
2023-03-19T14:55:53.622Z,101459.34
2023-03-19T14:58:41.259Z,101467.34
2023-03-19T15:01:28.286Z,101467.44
2023-03-19T15:04:20.065Z,101464.88
2023-03-19T15:07:14.323Z,101459.72
2023-03-19T15:10:01.396Z,101459.78
2023-03-19T15:13:00.143Z,101462.47
2023-03-19T15:15:59.492Z,101451.13
2023-03-19T15:18:47.038Z,101452.06
2023-03-19T15:21:34.107Z,101441.63
2023-03-19T15:24:20.938Z,101436.41
2023-03-19T15:27:08.035Z,101434.75
2023-03-19T15:30:03.174Z,101433.94
2023-03-19T15:33:16.453Z,101399.84
2023-03-19T15:36:08.150Z,101384.13
2023-03-19T15:39:00.948Z,101384.19
2023-03-19T15:41:51.872Z,101387.72
2023-03-19T15:44:50.176Z,101377.31
2023-03-19T15:47:48.583Z,101369.47
2023-03-19T15:50:38.857Z,101345.00
2023-03-19T15:53:39.941Z,101350.31
2023-03-19T15:56:27.810Z,101348.59
2023-03-19T15:59:17.348Z,101350.38
2023-03-19T16:02:04.327Z,101346.94
2023-03-19T16:05:18.339Z,101347.84
2023-03-19T16:08:04.672Z,101350.53
2023-03-19T16:11:00.173Z,101340.94
2023-03-19T16:13:52.723Z,101328.72
2023-03-19T16:16:42.245Z,101328.75
2023-03-19T16:19:52.784Z,101316.53
2023-03-19T16:22:50.514Z,101320.94
2023-03-19T16:25:39.283Z,101324.47
2023-03-19T16:28:35.493Z,101314.91
2023-03-19T16:31:22.459Z,101305.31
2023-03-19T16:34:11.299Z,101309.72
2023-03-19T16:36:58.176Z,101296.63
2023-03-19T16:39:51.012Z,101292.28
2023-03-19T16:42:52.937Z,101270.41
2023-03-19T16:45:39.996Z,101260.84
2023-03-19T16:48:28.509Z,101255.63
2023-03-19T16:51:17.931Z,101274.06
2023-03-19T16:54:06.251Z,101269.72
2023-03-19T16:56:53.426Z,101270.59
2023-03-19T16:59:49.685Z,101262.78
2023-03-19T17:02:38.034Z,101241.94
2023-03-19T17:05:33.500Z,101257.59
2023-03-19T17:08:20.450Z,101243.63
2023-03-19T17:11:13.299Z,101247.13
2023-03-19T17:14:00.242Z,101236.69
2023-03-19T17:16:48.245Z,101220.94
2023-03-19T17:19:39.063Z,101216.59
2023-03-19T17:22:25.910Z,101219.22
2023-03-19T17:25:13.266Z,101192.25
2023-03-19T17:28:00.276Z,101183.50
2023-03-19T17:30:47.193Z,101212.19
2023-03-19T17:33:41.413Z,101179.19
2023-03-19T17:36:30.109Z,101207.84
2023-03-19T17:39:17.156Z,101203.47
2023-03-19T17:42:04.532Z,101172.00
2023-03-19T17:44:51.428Z,101157.13
2023-03-19T17:47:38.940Z,101164.13
2023-03-19T17:50:26.202Z,101166.75
2023-03-19T17:53:13.303Z,101150.16
2023-03-19T17:56:00.631Z,101072.81
2023-03-19T17:58:50.183Z,101127.38
2023-03-19T18:01:41.152Z,101113.38
2023-03-19T18:04:33.647Z,101108.13
2023-03-19T18:07:20.709Z,101101.97
2023-03-19T18:10:07.647Z,101106.34
2023-03-19T18:12:54.715Z,101110.72
2023-03-19T18:15:42.595Z,101099.34
2023-03-19T18:18:38.956Z,101096.72
2023-03-19T18:21:26.111Z,101100.22
2023-03-19T18:24:12.954Z,101095.88
2023-03-19T18:26:59.826Z,101093.22
2023-03-19T18:29:46.642Z,101061.91
2023-03-19T18:32:50.687Z,101090.59
2023-03-19T18:35:50.532Z,101082.72
2023-03-19T18:38:43.134Z,101089.69
2023-03-19T18:41:37.049Z,101089.69
2023-03-19T18:44:25.430Z,101044.53
2023-03-19T18:47:12.271Z,101085.31
2023-03-19T18:49:59.284Z,101051.47
2023-03-19T18:52:46.114Z,101083.59
2023-03-19T18:55:33.714Z,101073.09
2023-03-19T18:58:22.750Z,101072.19
2023-03-19T19:01:11.179Z,101069.53
2023-03-19T19:03:58.097Z,101073.03
2023-03-19T19:06:48.447Z,101004.38
2023-03-19T19:09:35.295Z,101059.00
2023-03-19T19:12:22.087Z,101045.91
2023-03-19T19:15:09.045Z,101032.72
2023-03-19T19:17:55.954Z,101035.34
2023-03-19T19:20:45.247Z,100998.84
2023-03-19T19:23:32.300Z,100988.34
2023-03-19T19:26:19.457Z,101018.69
2023-03-19T19:29:06.509Z,101003.81
2023-03-19T19:31:54.583Z,100989.81
2023-03-19T19:34:41.730Z,100989.81
2023-03-19T19:37:35.782Z,100988.94
2023-03-19T19:40:22.983Z,100975.78
2023-03-19T19:43:12.382Z,100963.56
2023-03-19T19:45:59.426Z,100953.00
2023-03-19T19:48:49.113Z,100958.25
2023-03-19T19:51:47.526Z,100942.63
2023-03-19T19:54:34.408Z,100933.75
2023-03-19T19:57:21.237Z,100947.72
2023-03-19T20:00:09.551Z,100938.13
2023-03-19T20:02:59.266Z,100936.34
2023-03-19T20:05:49.121Z,100931.09
2023-03-19T20:08:36.874Z,100943.31
2023-03-19T20:11:31.892Z,100921.44
2023-03-19T20:14:18.871Z,100917.03
2023-03-19T20:17:05.770Z,100913.53
2023-03-19T20:19:52.764Z,100910.03
2023-03-19T20:22:39.798Z,100886.50
2023-03-19T20:25:27.126Z,100896.88
2023-03-19T20:28:16.958Z,100889.84
2023-03-19T20:31:04.028Z,100880.22
2023-03-19T20:33:51.633Z,100880.19
2023-03-19T20:36:38.599Z,100884.53
2023-03-19T20:39:25.492Z,100864.44
2023-03-19T20:42:12.769Z,100849.63
2023-03-19T20:44:59.800Z,100853.00
2023-03-19T20:47:47.073Z,100843.38
2023-03-19T20:50:48.889Z,100823.28
2023-03-19T20:53:35.879Z,100822.31
2023-03-19T20:56:23.289Z,100818.81
2023-03-19T20:59:10.370Z,100803.06
2023-03-19T21:01:57.358Z,100796.91
2023-03-19T21:04:44.249Z,100793.34
2023-03-19T21:07:47.093Z,100785.59
2023-03-19T21:10:44.115Z,100782.88
2023-03-19T21:13:36.909Z,100777.59
2023-03-19T21:16:23.904Z,100778.47
2023-03-19T21:19:10.900Z,100760.09
2023-03-19T21:21:58.068Z,100703.91
2023-03-19T21:24:44.902Z,100747.06
2023-03-19T21:27:43.056Z,100705.63
2023-03-19T21:30:36.150Z,100739.97
2023-03-19T21:33:23.006Z,100738.16
2023-03-19T21:36:10.644Z,100722.41
2023-03-19T21:38:57.488Z,100708.53
2023-03-19T21:41:51.017Z,100711.03
2023-03-19T21:44:41.923Z,100649.50
2023-03-19T21:47:39.201Z,100696.13
2023-03-19T21:50:26.610Z,100688.31
2023-03-19T21:53:13.558Z,100685.59
2023-03-19T21:56:00.522Z,100638.69
2023-03-19T21:58:53.820Z,100645.53
2023-03-19T22:01:44.175Z,100647.91
2023-03-19T22:04:31.357Z,100641.75
2023-03-19T22:07:18.285Z,100655.00
2023-03-19T22:10:05.126Z,100635.09
2023-03-19T22:12:54.449Z,100664.47
2023-03-19T22:15:49.690Z,100661.81
2023-03-19T22:18:36.796Z,100660.06
2023-03-19T22:21:23.727Z,100643.47
2023-03-19T22:24:11.818Z,100657.38
2023-03-19T22:27:01.581Z,100638.19
2023-03-19T22:29:51.159Z,100635.47
2023-03-19T22:32:38.936Z,100620.78
2023-03-19T22:35:26.257Z,100638.00
2023-03-19T22:38:13.169Z,100638.84
2023-03-19T22:41:00.292Z,100631.88
2023-03-19T22:43:58.178Z,100637.09
2023-03-19T22:46:45.647Z,100628.34
2023-03-19T22:49:35.282Z,100615.19
2023-03-19T22:52:22.351Z,100617.81
2023-03-19T22:55:09.253Z,100601.13
2023-03-19T22:57:56.247Z,100605.50
2023-03-19T23:00:43.386Z,100616.03
2023-03-19T23:03:38.330Z,100620.34
2023-03-19T23:06:31.142Z,100616.84
2023-03-19T23:09:18.459Z,100611.59
2023-03-19T23:12:05.439Z,100614.22
2023-03-19T23:14:52.396Z,100600.19
2023-03-19T23:17:39.727Z,100583.69
2023-03-19T23:20:32.381Z,100605.41
2023-03-19T23:23:19.254Z,100583.75
2023-03-19T23:26:07.124Z,100594.84
2023-03-19T23:28:54.768Z,100597.47
2023-03-19T23:31:42.230Z,100593.94
2023-03-19T23:34:42.484Z,100589.69
2023-03-19T23:37:36.829Z,100592.16
2023-03-19T23:40:24.326Z,100595.69
2023-03-19T23:43:14.322Z,100607.00
2023-03-19T23:46:03.697Z,100591.31
2023-03-19T23:49:00.461Z,100591.19
2023-03-19T23:51:47.588Z,100597.34
2023-03-19T23:54:55.004Z,100611.38
2023-03-19T23:57:44.306Z,100596.41
